createdAt,value
2022-12-09T00:02:08.625Z,24.80
2022-12-09T00:04:37.098Z,23.73
2022-12-09T00:07:06.193Z,23.65
2022-12-09T00:09:34.671Z,24.48
2022-12-09T00:12:03.162Z,24.77
2022-12-09T00:14:32.790Z,24.10
2022-12-09T00:17:01.303Z,24.00
2022-12-09T00:19:29.899Z,23.73
2022-12-09T00:21:58.501Z,26.45
2022-12-09T00:24:26.682Z,24.45
2022-12-09T00:26:55.210Z,24.10
2022-12-09T00:29:23.532Z,21.90
2022-12-09T00:31:53.425Z,23.25
2022-12-09T00:34:21.580Z,23.50
2022-12-09T00:36:50.163Z,21.17
2022-12-09T00:39:18.830Z,21.13
2022-12-09T00:41:49.254Z,20.52
2022-12-09T00:44:17.429Z,19.80
2022-12-09T00:46:45.982Z,18.23
2022-12-09T00:49:15.800Z,19.65
2022-12-09T00:51:45.505Z,18.52
2022-12-09T00:54:13.754Z,20.40
2022-12-09T00:56:42.195Z,18.95
2022-12-09T00:59:10.255Z,20.02
2022-12-09T01:01:38.772Z,18.38
2022-12-09T01:04:08.791Z,19.38
2022-12-09T01:06:38.998Z,18.33
2022-12-09T01:09:07.415Z,18.80
2022-12-09T01:11:36.705Z,18.08
2022-12-09T01:14:05.405Z,18.02
2022-12-09T01:16:34.988Z,18.60
2022-12-09T01:19:05.101Z,18.77
2022-12-09T01:21:34.956Z,18.77
2022-12-09T01:24:08.095Z,19.30
2022-12-09T01:26:36.982Z,17.48
2022-12-09T01:29:05.822Z,17.63
2022-12-09T01:31:34.446Z,16.83
2022-12-09T01:34:02.711Z,17.38
2022-12-09T01:36:31.744Z,18.02
2022-12-09T01:39:01.414Z,16.92
2022-12-09T01:41:31.440Z,16.75
2022-12-09T01:44:11.096Z,16.38
2022-12-09T01:46:40.069Z,16.88
2022-12-09T01:49:09.867Z,16.40
2022-12-09T01:51:38.557Z,15.85
2022-12-09T01:54:06.899Z,16.60
2022-12-09T01:56:38.133Z,16.98
2022-12-09T01:59:08.285Z,16.92
2022-12-09T02:01:37.470Z,16.53
2022-12-09T02:04:06.950Z,16.23
2022-12-09T02:06:37.898Z,15.82
2022-12-09T02:09:06.690Z,17.33
2022-12-09T02:11:44.705Z,17.30
2022-12-09T02:14:18.201Z,16.67
2022-12-09T02:16:54.759Z,17.30
2022-12-09T02:19:31.706Z,17.67
2022-12-09T02:22:01.262Z,16.88
2022-12-09T02:24:36.229Z,16.33
2022-12-09T02:27:13.491Z,15.80
2022-12-09T02:29:52.324Z,15.15
2022-12-09T02:32:41.952Z,14.65
2022-12-09T02:35:14.149Z,15.32
2022-12-09T02:37:47.452Z,14.13
2022-12-09T02:40:17.963Z,13.55
2022-12-09T02:42:47.247Z,14.65
2022-12-09T02:45:16.918Z,13.60
2022-12-09T02:47:49.699Z,13.35
2022-12-09T02:50:22.864Z,14.30
2022-12-09T02:52:53.362Z,13.27
2022-12-09T02:55:22.569Z,13.45
2022-12-09T02:57:55.091Z,14.13
2022-12-09T03:00:23.575Z,12.20
2022-12-09T03:02:55.147Z,12.93
2022-12-09T03:08:00.363Z,12.88
2022-12-09T03:10:32.730Z,13.63
2022-12-09T03:13:05.100Z,13.40
2022-12-09T03:15:36.093Z,12.23
2022-12-09T03:18:08.660Z,12.80
2022-12-09T03:20:40.866Z,13.07
2022-12-09T03:23:10.508Z,12.80
2022-12-09T03:25:41.179Z,13.88
2022-12-09T03:28:12.819Z,12.02
2022-12-09T03:33:10.396Z,11.55
2022-12-09T03:35:42.606Z,12.45
2022-12-09T03:38:12.857Z,12.40
2022-12-09T03:40:41.997Z,13.02
2022-12-09T03:43:14.228Z,11.63
2022-12-09T03:45:43.282Z,12.75
2022-12-09T03:48:12.590Z,11.27
2022-12-09T03:50:46.725Z,12.18
2022-12-09T03:53:19.646Z,11.75
2022-12-09T03:55:52.674Z,12.55
2022-12-09T03:58:21.384Z,14.05
2022-12-09T04:00:50.300Z,14.35
2022-12-09T04:03:19.783Z,13.65
2022-12-09T04:05:49.404Z,13.40
2022-12-09T04:08:18.284Z,12.93
2022-12-09T04:10:46.976Z,14.43
2022-12-09T04:13:15.576Z,13.20
2022-12-09T04:15:43.858Z,14.70
2022-12-09T04:18:12.487Z,12.63
2022-12-09T04:20:41.148Z,12.85
2022-12-09T04:23:11.273Z,12.25
2022-12-09T04:25:39.444Z,12.73
2022-12-09T04:28:08.106Z,12.80
2022-12-09T04:30:36.692Z,13.48
2022-12-09T04:33:05.321Z,12.60
2022-12-09T04:35:33.418Z,12.35
2022-12-09T04:38:01.971Z,12.98
2022-12-09T04:40:31.868Z,12.35
2022-12-09T04:43:00.472Z,11.95
2022-12-09T04:45:29.852Z,11.98
2022-12-09T04:47:59.593Z,12.38
2022-12-09T04:50:28.138Z,12.68
2022-12-09T04:52:56.685Z,11.77
2022-12-09T04:55:24.844Z,13.43
2022-12-09T04:57:54.841Z,13.30
2022-12-09T05:00:23.675Z,14.45
2022-12-09T05:02:52.188Z,14.75
2022-12-09T05:05:20.884Z,18.15
2022-12-09T05:07:50.426Z,20.92
2022-12-09T05:10:19.353Z,19.00
2022-12-09T05:12:48.070Z,19.30
2022-12-09T05:15:17.951Z,17.98
2022-12-09T05:17:46.835Z,18.05
2022-12-09T05:20:15.936Z,18.33
2022-12-09T05:22:44.630Z,19.48
2022-12-09T05:25:13.289Z,18.25
2022-12-09T05:27:42.291Z,19.50
2022-12-09T05:30:11.967Z,19.30
2022-12-09T05:32:42.260Z,18.98
2022-12-09T05:35:11.509Z,19.58
2022-12-09T05:37:40.122Z,19.38
2022-12-09T05:40:10.210Z,19.73
2022-12-09T05:42:41.669Z,19.45
2022-12-09T05:45:12.441Z,18.98
2022-12-09T05:47:43.305Z,19.53
2022-12-09T05:50:12.556Z,19.55
2022-12-09T05:52:42.113Z,20.27
2022-12-09T05:55:11.899Z,21.92
2022-12-09T05:57:40.462Z,20.48
2022-12-09T06:00:10.749Z,22.35
2022-12-09T06:02:39.959Z,21.33
2022-12-09T06:05:11.078Z,24.17
2022-12-09T06:07:39.771Z,21.63
2022-12-09T06:10:10.240Z,23.08
2022-12-09T06:12:39.211Z,22.38
2022-12-09T06:15:10.534Z,23.35
2022-12-09T06:17:40.262Z,22.73
2022-12-09T06:20:10.997Z,22.50
2022-12-09T06:22:39.656Z,24.33
2022-12-09T06:25:08.294Z,23.08
2022-12-09T06:27:37.298Z,24.65
2022-12-09T06:30:06.540Z,24.25
2022-12-09T06:32:35.912Z,23.08
2022-12-09T06:35:05.157Z,23.65
2022-12-09T06:37:35.543Z,22.95
2022-12-09T06:40:04.075Z,23.48
2022-12-09T06:42:32.670Z,21.55
2022-12-09T06:45:01.180Z,24.65
2022-12-09T06:47:29.774Z,23.38
2022-12-09T06:50:06.712Z,24.13
2022-12-09T06:52:38.295Z,23.35
2022-12-09T06:55:07.901Z,23.52
2022-12-09T06:57:37.530Z,22.45
2022-12-09T07:00:07.774Z,21.73
2022-12-09T07:02:37.317Z,22.08
2022-12-09T07:05:08.237Z,22.55
2022-12-09T07:07:38.797Z,16.67
2022-12-09T07:10:10.531Z,22.13
2022-12-09T07:12:39.564Z,20.60
2022-12-09T07:15:09.323Z,20.70
2022-12-09T07:17:39.153Z,24.55
2022-12-09T07:20:09.337Z,24.13
2022-12-09T07:22:39.608Z,21.98
2022-12-09T07:25:08.867Z,20.67
2022-12-09T07:27:38.075Z,21.42
2022-12-09T07:30:10.317Z,20.15
2022-12-09T07:32:39.308Z,19.02
2022-12-09T07:35:08.757Z,25.67
2022-12-09T07:37:37.464Z,20.10
2022-12-09T07:40:08.665Z,32.15
2022-12-09T07:42:37.290Z,34.20
2022-12-09T07:45:06.959Z,22.95
2022-12-09T07:47:36.694Z,21.67
2022-12-09T07:50:06.999Z,20.80
2022-12-09T07:52:36.364Z,20.48
2022-12-09T07:55:07.810Z,21.23
2022-12-09T07:57:38.438Z,19.95
2022-12-09T08:00:08.672Z,24.10
2022-12-09T08:02:37.314Z,22.52
2022-12-09T08:05:07.809Z,25.20
2022-12-09T08:07:43.715Z,23.60
2022-12-09T08:10:14.130Z,18.30
2022-12-09T08:12:43.098Z,17.17
2022-12-09T08:15:13.204Z,15.93
2022-12-09T08:17:42.012Z,17.73
2022-12-09T08:20:11.534Z,17.95
2022-12-09T08:22:40.701Z,17.92
2022-12-09T08:25:10.046Z,20.35
2022-12-09T08:27:40.415Z,19.33
2022-12-09T08:30:10.791Z,19.52
2022-12-09T08:32:39.997Z,21.98
2022-12-09T08:35:15.210Z,23.05
2022-12-09T08:37:44.434Z,23.10
2022-12-09T08:40:14.306Z,23.38
2022-12-09T08:42:44.675Z,25.33
2022-12-09T08:45:13.185Z,23.48
2022-12-09T08:47:45.166Z,24.00
2022-12-09T08:50:14.490Z,23.77
2022-12-09T08:52:43.716Z,26.02
2022-12-09T08:55:12.142Z,25.63
2022-12-09T08:57:41.006Z,26.10
2022-12-09T09:00:12.295Z,60.35
2022-12-09T09:02:41.369Z,46.80
2022-12-09T09:05:10.586Z,36.25
2022-12-09T09:07:39.719Z,35.55
2022-12-09T09:10:10.208Z,31.52
2022-12-09T09:12:43.225Z,26.20
2022-12-09T09:15:14.743Z,33.35
2022-12-09T09:17:49.822Z,32.35
2022-12-09T09:20:20.061Z,29.67
2022-12-09T09:22:49.165Z,25.40
2022-12-09T09:25:18.456Z,23.85
2022-12-09T09:27:47.163Z,22.73
2022-12-09T09:30:17.151Z,22.17
2022-12-09T09:32:46.171Z,23.80
2022-12-09T09:35:14.723Z,25.40
2022-12-09T09:37:43.849Z,21.02
2022-12-09T09:40:13.292Z,21.63
2022-12-09T09:42:47.171Z,24.77
2022-12-09T09:45:20.632Z,24.70
2022-12-09T09:47:52.805Z,22.98
2022-12-09T09:50:28.489Z,26.50
2022-12-09T09:52:57.669Z,26.75
2022-12-09T09:55:33.221Z,23.08
2022-12-09T09:58:07.956Z,20.10
2022-12-09T10:00:43.501Z,21.02
2022-12-09T10:03:15.549Z,21.15
2022-12-09T10:05:50.905Z,19.50
2022-12-09T10:08:28.030Z,18.33
2022-12-09T10:11:04.008Z,16.80
2022-12-09T10:13:45.479Z,15.98
2022-12-09T10:16:18.998Z,17.02
2022-12-09T10:19:08.197Z,19.58
2022-12-09T10:21:42.346Z,15.50
2022-12-09T10:24:21.369Z,14.95
2022-12-09T10:27:00.097Z,13.20
2022-12-09T10:29:44.646Z,12.00
2022-12-09T10:32:19.619Z,13.50
2022-12-09T10:34:48.711Z,14.18
2022-12-09T10:37:25.853Z,14.95
2022-12-09T10:39:58.773Z,13.90
2022-12-09T10:42:45.564Z,17.00
2022-12-09T10:45:14.463Z,15.13
2022-12-09T10:47:50.918Z,14.75
2022-12-09T10:50:31.664Z,15.80
2022-12-09T10:53:06.225Z,13.43
2022-12-09T10:55:38.877Z,14.82
2022-12-09T10:58:21.156Z,14.88
2022-12-09T11:01:11.915Z,15.38
2022-12-09T11:03:43.344Z,14.93
2022-12-09T11:06:27.837Z,16.50
2022-12-09T11:09:00.095Z,16.40
2022-12-09T11:11:45.422Z,18.48
2022-12-09T11:14:24.819Z,23.35
2022-12-09T11:16:55.447Z,16.70
2022-12-09T11:19:33.279Z,56.63
2022-12-09T11:22:38.309Z,36.20
2022-12-09T11:25:27.215Z,38.13
2022-12-09T11:27:57.875Z,37.50
2022-12-09T11:30:29.032Z,20.45
2022-12-09T11:33:01.496Z,23.38
2022-12-09T11:35:40.908Z,23.42
2022-12-09T11:38:18.677Z,24.20
2022-12-09T11:41:00.655Z,25.55
2022-12-09T11:43:34.120Z,23.85
2022-12-09T11:46:03.311Z,24.45
2022-12-09T11:48:40.209Z,22.45
2022-12-09T11:51:21.635Z,22.55
2022-12-09T11:53:50.390Z,18.80
2022-12-09T11:56:21.348Z,19.98
2022-12-09T11:58:54.170Z,15.77
2022-12-09T12:01:25.821Z,19.45
2022-12-09T12:03:56.957Z,20.35
2022-12-09T12:06:32.879Z,19.00
2022-12-09T12:09:04.439Z,18.48
2022-12-09T12:14:05.981Z,19.90
2022-12-09T12:16:39.962Z,18.23
2022-12-09T12:19:14.078Z,18.17
2022-12-09T12:21:55.128Z,16.35
2022-12-09T12:24:35.472Z,21.27
2022-12-09T12:27:13.846Z,21.45
2022-12-09T12:29:49.149Z,20.20
2022-12-09T12:32:38.728Z,21.58
2022-12-09T12:35:42.957Z,21.45
2022-12-09T12:38:27.437Z,21.45
2022-12-09T12:41:00.323Z,28.95
2022-12-09T12:44:06.785Z,33.63
2022-12-09T12:46:45.731Z,35.08
2022-12-09T12:49:23.383Z,38.60
2022-12-09T12:52:01.509Z,33.88
2022-12-09T12:54:45.312Z,36.65
2022-12-09T12:57:19.133Z,28.67
2022-12-09T12:59:53.202Z,29.60
2022-12-09T13:02:33.609Z,21.10
2022-12-09T13:05:04.714Z,27.17
2022-12-09T13:10:09.137Z,27.65
2022-12-09T13:12:56.618Z,27.20
2022-12-09T13:15:32.247Z,27.25
2022-12-09T13:18:05.718Z,29.60
2022-12-09T13:20:40.777Z,36.58
2022-12-09T13:23:18.432Z,22.55
2022-12-09T13:25:54.019Z,32.13
2022-12-09T13:28:26.640Z,28.02
2022-12-09T13:30:59.103Z,29.38
2022-12-09T13:33:38.336Z,35.38
2022-12-09T13:36:10.063Z,27.58
2022-12-09T13:38:40.803Z,38.08
2022-12-09T13:41:55.445Z,30.48
2022-12-09T13:44:30.096Z,26.50
2022-12-09T13:47:16.435Z,29.13
2022-12-09T13:49:54.403Z,23.55
2022-12-09T13:52:41.185Z,32.13
2022-12-09T13:55:34.728Z,34.78
2022-12-09T13:58:51.054Z,32.88
2022-12-09T14:01:23.730Z,28.33
2022-12-09T14:03:58.770Z,27.42
2022-12-09T14:06:30.439Z,17.65
2022-12-09T14:11:49.392Z,6.05
2022-12-09T14:14:46.942Z,14.55
2022-12-09T14:17:21.038Z,23.33
2022-12-09T14:19:55.687Z,21.75
2022-12-09T14:22:35.342Z,25.92
2022-12-09T14:25:50.995Z,34.70
2022-12-09T14:29:01.315Z,30.65
2022-12-09T14:32:00.245Z,24.77
2022-12-09T14:34:40.216Z,22.00
2022-12-09T14:37:21.737Z,23.95
2022-12-09T14:39:54.519Z,27.63
2022-12-09T14:42:29.768Z,33.17
2022-12-09T14:45:01.722Z,35.10
2022-12-09T14:47:34.957Z,26.08
2022-12-09T14:50:10.564Z,16.10
2022-12-09T14:52:39.077Z,18.75
2022-12-09T14:55:10.274Z,12.35
2022-12-09T14:57:41.729Z,12.15
2022-12-09T15:03:30.763Z,11.50
2022-12-09T15:05:55.895Z,13.95
2022-12-09T15:08:32.843Z,16.25
2022-12-09T15:11:02.516Z,21.77
2022-12-09T15:13:34.676Z,26.52
2022-12-09T15:16:03.490Z,21.58
2022-12-09T15:18:33.792Z,27.35
2022-12-09T15:21:02.709Z,27.42
2022-12-09T15:23:32.769Z,24.77
2022-12-09T15:26:05.148Z,27.13
2022-12-09T15:28:34.571Z,26.73
2022-12-09T15:31:05.888Z,21.92
2022-12-09T15:33:41.594Z,25.42
2022-12-09T15:36:13.016Z,26.40
2022-12-09T15:38:43.866Z,26.90
2022-12-09T15:41:30.035Z,26.88
2022-12-09T15:44:00.877Z,27.60
2022-12-09T15:49:00.831Z,30.75
2022-12-09T15:51:30.008Z,23.63
2022-12-09T15:54:00.244Z,27.35
2022-12-09T15:56:32.542Z,28.70
2022-12-09T15:59:05.860Z,29.05
2022-12-09T16:01:35.855Z,37.08
2022-12-09T16:04:06.935Z,30.83
2022-12-09T16:09:12.821Z,28.88
2022-12-09T16:11:43.203Z,33.35
2022-12-09T16:14:12.222Z,24.02
2022-12-09T16:16:44.792Z,27.50
2022-12-09T16:19:36.261Z,22.95
2022-12-09T16:22:07.044Z,22.67
2022-12-09T16:25:12.579Z,21.33
2022-12-09T16:27:27.485Z,20.38
2022-12-09T16:29:57.795Z,23.90
2022-12-09T16:32:30.373Z,16.38
2022-12-09T16:35:01.521Z,20.02
2022-12-09T16:37:38.231Z,17.65
2022-12-09T16:40:50.431Z,19.55
2022-12-09T16:43:21.717Z,19.52
2022-12-09T16:45:51.027Z,19.05
2022-12-09T16:48:20.458Z,21.08
2022-12-09T16:50:51.439Z,21.67
2022-12-09T16:53:21.914Z,27.85
2022-12-09T16:55:51.706Z,22.27
2022-12-09T16:58:20.433Z,24.33
2022-12-09T17:00:49.106Z,30.55
2022-12-09T17:03:21.140Z,28.23
2022-12-09T17:05:50.889Z,30.27
2022-12-09T17:08:19.341Z,30.35
2022-12-09T17:10:47.813Z,28.60
2022-12-09T17:13:16.315Z,30.35
2022-12-09T17:15:44.562Z,34.45
2022-12-09T17:18:13.036Z,33.83
2022-12-09T17:20:41.398Z,34.05
2022-12-09T17:23:11.493Z,35.50
2022-12-09T17:25:39.654Z,36.05
2022-12-09T17:28:08.344Z,34.63
2022-12-09T17:30:38.566Z,35.63
2022-12-09T17:33:07.017Z,34.60
2022-12-09T17:35:38.624Z,38.85
2022-12-09T17:38:07.043Z,52.47
2022-12-09T17:40:37.095Z,37.75
2022-12-09T17:43:05.601Z,37.07
2022-12-09T17:45:37.424Z,34.97
2022-12-09T17:48:10.302Z,37.22
2022-12-09T17:50:38.739Z,36.60
2022-12-09T17:53:07.274Z,31.95
2022-12-09T17:55:35.426Z,42.03
2022-12-09T17:58:05.379Z,34.70
2022-12-09T18:00:34.391Z,35.25
2022-12-09T18:03:02.940Z,35.55
2022-12-09T18:05:31.058Z,36.28
2022-12-09T18:07:59.608Z,36.90
2022-12-09T18:10:27.896Z,52.08
2022-12-09T18:12:56.450Z,37.72
2022-12-09T18:15:27.381Z,44.42
2022-12-09T18:20:23.696Z,49.38
2022-12-09T18:22:52.113Z,47.13
2022-12-09T18:25:20.287Z,37.53
2022-12-09T18:27:48.801Z,41.08
2022-12-09T18:30:17.086Z,40.55
2022-12-09T18:32:47.177Z,42.10
2022-12-09T18:35:15.350Z,39.70
2022-12-09T18:37:44.071Z,38.42
2022-12-09T18:40:13.642Z,39.40
2022-12-09T18:42:42.151Z,37.67
2022-12-09T18:45:11.129Z,36.97
2022-12-09T18:47:39.652Z,36.60
2022-12-09T18:50:10.579Z,39.90
2022-12-09T18:52:39.255Z,37.85
2022-12-09T18:55:08.237Z,41.50
2022-12-09T18:57:36.643Z,44.75
2022-12-09T19:00:06.690Z,43.00
2022-12-09T19:02:35.486Z,45.90
2022-12-09T19:05:03.883Z,40.55
2022-12-09T19:07:33.704Z,49.80
2022-12-09T19:10:01.981Z,37.25
2022-12-09T19:12:46.414Z,43.42
2022-12-09T19:15:16.102Z,41.25
2022-12-09T19:17:46.171Z,44.20
2022-12-09T19:20:14.574Z,44.13
2022-12-09T19:22:44.479Z,45.20
2022-12-09T19:25:12.768Z,41.00
2022-12-09T19:27:41.244Z,40.67
2022-12-09T19:30:10.416Z,43.88
2022-12-09T19:32:54.163Z,38.85
2022-12-09T19:35:22.237Z,37.22
2022-12-09T19:37:56.661Z,39.78
2022-12-09T19:40:27.872Z,36.40
2022-12-09T19:42:56.383Z,41.80
2022-12-09T19:45:24.500Z,40.20
2022-12-09T19:47:52.941Z,39.20
2022-12-09T19:50:22.713Z,42.20
2022-12-09T19:52:52.677Z,37.58
2022-12-09T19:55:20.965Z,44.80
2022-12-09T19:57:49.415Z,40.05
2022-12-09T20:00:18.476Z,33.13
2022-12-09T20:02:46.976Z,32.53
2022-12-09T20:05:15.244Z,31.10
2022-12-09T20:07:43.771Z,31.67
2022-12-09T20:10:13.536Z,31.90
2022-12-09T20:12:42.152Z,30.05
2022-12-09T20:15:11.028Z,32.08
2022-12-09T20:17:39.524Z,26.98
2022-12-09T20:20:10.819Z,28.48
2022-12-09T20:22:39.302Z,24.85
2022-12-09T20:25:08.417Z,27.80
2022-12-09T20:27:38.373Z,29.52
2022-12-09T20:30:07.847Z,33.00
2022-12-09T20:32:36.616Z,29.73
2022-12-09T20:35:11.166Z,34.03
2022-12-09T20:37:39.622Z,32.45
2022-12-09T20:40:09.704Z,37.22
2022-12-09T20:42:39.760Z,28.90
2022-12-09T20:45:09.303Z,33.00
2022-12-09T20:47:37.811Z,29.58
2022-12-09T20:50:07.301Z,31.05
2022-12-09T20:52:35.843Z,35.78
2022-12-09T20:55:04.222Z,35.97
2022-12-09T20:57:32.925Z,39.40
2022-12-09T21:00:02.515Z,36.47
2022-12-09T21:02:39.544Z,38.47
2022-12-09T21:05:09.664Z,37.92
2022-12-09T21:07:38.409Z,36.67
2022-12-09T21:10:07.626Z,34.70
2022-12-09T21:12:36.649Z,35.17
2022-12-09T21:15:07.333Z,31.42
2022-12-09T21:17:35.847Z,34.60
2022-12-09T21:20:04.604Z,38.47
2022-12-09T21:22:34.183Z,33.70
2022-12-09T21:25:02.683Z,27.77
2022-12-09T21:27:31.258Z,26.23
2022-12-09T21:29:59.354Z,24.73
2022-12-09T21:32:29.108Z,25.67
2022-12-09T21:34:58.270Z,29.73
2022-12-09T21:37:26.901Z,27.10
2022-12-09T21:39:55.269Z,23.65
2022-12-09T21:42:23.810Z,21.73
2022-12-09T21:44:51.957Z,20.65
2022-12-09T21:47:20.430Z,19.85
2022-12-09T21:49:49.868Z,21.83
2022-12-09T21:52:18.337Z,22.90
2022-12-09T21:54:55.030Z,28.42
2022-12-09T21:57:23.880Z,27.23
2022-12-09T21:59:52.108Z,26.02
2022-12-09T22:02:20.687Z,26.08
2022-12-09T22:04:50.299Z,23.63
2022-12-09T22:07:18.727Z,24.58
2022-12-09T22:09:46.987Z,31.95
2022-12-09T22:12:15.394Z,35.63
2022-12-09T22:14:43.543Z,27.30
2022-12-09T22:17:12.025Z,23.45
2022-12-09T22:19:40.092Z,24.15
2022-12-09T22:22:10.316Z,19.65
2022-12-09T22:24:38.515Z,20.10
2022-12-09T22:27:07.205Z,21.92
2022-12-09T22:29:36.766Z,17.23
2022-12-09T22:32:05.410Z,16.95
2022-12-09T22:34:33.530Z,18.65
2022-12-09T22:37:21.079Z,18.60
2022-12-09T22:39:53.297Z,16.70
2022-12-09T22:42:21.780Z,15.43
2022-12-09T22:44:49.955Z,15.80
2022-12-09T22:47:18.767Z,13.82
2022-12-09T22:49:47.037Z,13.00
2022-12-09T22:52:15.608Z,13.20
2022-12-09T22:54:43.862Z,12.77
2022-12-09T22:57:13.688Z,12.30
2022-12-09T22:59:43.227Z,12.65
2022-12-09T23:02:11.847Z,13.05
2022-12-09T23:04:40.038Z,13.70
2022-12-09T23:07:09.606Z,12.30
2022-12-09T23:09:38.868Z,11.80
2022-12-09T23:12:08.056Z,12.20
2022-12-09T23:14:37.915Z,11.77
2022-12-09T23:17:07.117Z,11.95
2022-12-09T23:19:35.394Z,13.38
2022-12-09T23:22:04.081Z,13.23
2022-12-09T23:24:32.184Z,13.00
2022-12-09T23:27:00.620Z,13.63
2022-12-09T23:29:28.691Z,12.77
2022-12-09T23:31:58.547Z,13.15
2022-12-09T23:34:27.080Z,12.15
2022-12-09T23:36:55.982Z,13.23
2022-12-09T23:39:24.368Z,13.68
2022-12-09T23:41:52.728Z,11.68
2022-12-09T23:44:20.949Z,11.77
2022-12-09T23:46:49.629Z,12.32
2022-12-09T23:49:19.256Z,12.18
2022-12-09T23:51:47.998Z,11.07
2022-12-09T23:54:18.401Z,11.73
2022-12-09T23:56:50.065Z,11.55
2022-12-09T23:59:19.713Z,11.50
